This demonstration page uses our WeatherBlox Daily Observations layout. Learn more.

38.88101, -77.10428

Hourly Observations for January 25, 2017

Temp ( °F °C ) Dew Point ( °F °C ) Humidity (%) Winds ( mph kmh ) Pressure ( in mb ) Visibility ( mi km ) Precip ( " mm )
12:52 am 00:52 Mostly Clear 47 8.3 37 2.8 69 69 W 9 15 29.66 1005 10 16.0934 0 0
1:52 am 01:52 Clear 48 8.9 36 2.2 63 63 VRB 5 7 29.68 1005 10 16.0934 0 0
2:52 am 02:52 Mostly Clear 48 8.9 34 1.1 58 58 WNW 8 13 29.7 1006 10 16.0934 0 0
3:52 am 03:52 Clear 46 7.8 35 1.7 66 66 WNW 6 9 29.71 1006 10 16.0934 0 0
4:52 am 04:52 Mostly Clear 47 8.3 35 1.7 63 63 VRB 5 7 29.74 1007 10 16.0934 0 0
5:52 am 05:52 Mostly Clear 45 7.2 35 1.7 68 68 WSW 7 11 29.76 1008 10 16.0934 0 0
6:52 am 06:52 Clear 46 7.8 34 1.1 63 63 W 8 13 29.78 1008 10 16.0934 0 0
7:52 am 07:52 Sunny 47 8.3 33 0.6 59 59 WSW 7 11 29.79 1009 10 16.0934 0 0
8:52 am 08:52 Sunny 49 9.4 33 0.6 55 55 WNW 8 13 29.8 1009 10 16.0934 0 0
9:52 am 09:52 Sunny 51 10.6 33 0.6 50 50 WNW 7 11 29.79 1009 10 16.0934 0 0
10:52 am 10:52 Mostly Sunny 52 11.1 33 0.6 49 49 Calm 29.8 1009 10 16.0934 0 0
11:52 am 11:52 Mostly Sunny 54 12.2 35 1.7 49 49 S 8 13 29.78 1008 10 16.0934 0 0
12:52 pm 12:52 Mostly Sunny 56 13.3 37 2.8 49 49 S 12 19 29.74 1007 10 16.0934 0 0
1:52 pm 13:52 Sunny 58 14.4 35 1.7 42 42 S 7 11 29.72 1006 10 16.0934 0 0
2:52 pm 14:52 Sunny 60 15.6 34 1.1 38 38 S 8 13 29.7 1006 10 16.0934 0 0
3:52 pm 15:52 Mostly Sunny 58 14.4 37 2.8 46 46 SSE 10 17 29.68 1005 10 16.0934 0 0
4:52 pm 16:52 Mostly Sunny 57 13.9 36 2.2 45 45 S 7 11 29.67 1005 10 16.0934 0 0
5:52 pm 17:52 Partly Cloudy 55 12.8 38 3.3 53 53 S 3 6 29.67 1005 10 16.0934 0 0
6:52 pm 18:52 Partly Cloudy 56 13.3 37 2.8 49 49 SE 5 7 29.66 1004 10 16.0934 0 0
7:52 pm 19:52 Mostly Clear 52 11.1 38 3.3 59 59 SSE 6 9 29.65 1004 10 16.0934 0 0
8:52 pm 20:52 Mostly Clear 50 10 40 4.4 68 68 Calm 29.62 1003 10 16.0934 0 0
9:52 pm 21:52 Partly Cloudy 49 9.4 40 4.4 71 71 S 5 7 29.6 1002 10 16.0934 0 0
10:52 pm 22:52 Partly Cloudy 49 9.4 39 3.9 69 69 WSW 5 7 29.58 1002 10 16.0934 0 0
11:52 pm 23:52 Partly Cloudy 49 9.4 39 3.9 69 69 Calm 29.56 1001 10 16.0934 0 0

Powered by AerisWeather